sensor_id;sensor_type;location;lat;lon;timestamp;temperature;humidity
26964;DHT22;14521;48.148;-1.656;2024-03-02T00:02:22;17.70;82.10
26964;DHT22;14521;48.148;-1.656;2024-03-02T00:05:49;17.70;82.10
26964;DHT22;14521;48.148;-1.656;2024-03-02T00:09:12;17.70;82.30
26964;DHT22;14521;48.148;-1.656;2024-03-02T00:12:40;17.70;82.10
26964;DHT22;14521;48.148;-1.656;2024-03-02T00:16:04;17.80;82.10
26964;DHT22;14521;48.148;-1.656;2024-03-02T00:19:27;17.80;82.10
26964;DHT22;14521;48.148;-1.656;2024-03-02T00:23:02;17.80;81.90
26964;DHT22;14521;48.148;-1.656;2024-03-02T00:26:25;17.80;82.10
26964;DHT22;14521;48.148;-1.656;2024-03-02T00:29:47;17.80;81.90
26964;DHT22;14521;48.148;-1.656;2024-03-02T00:33:10;17.80;82.10
26964;DHT22;14521;48.148;-1.656;2024-03-02T00:36:33;17.80;82.10
26964;DHT22;14521;48.148;-1.656;2024-03-02T00:39:55;17.80;81.80
26964;DHT22;14521;48.148;-1.656;2024-03-02T00:43:43;17.80;81.90
26964;DHT22;14521;48.148;-1.656;2024-03-02T00:47:09;17.80;82.10
26964;DHT22;14521;48.148;-1.656;2024-03-02T00:50:31;17.80;81.90
26964;DHT22;14521;48.148;-1.656;2024-03-02T00:53:58;17.80;82.00
26964;DHT22;14521;48.148;-1.656;2024-03-02T00:57:20;17.80;81.90
26964;DHT22;14521;48.148;-1.656;2024-03-02T01:00:42;17.80;81.90
26964;DHT22;14521;48.148;-1.656;2024-03-02T01:04:05;17.80;81.70
26964;DHT22;14521;48.148;-1.656;2024-03-02T01:07:27;17.80;81.70
26964;DHT22;14521;48.148;-1.656;2024-03-02T01:10:49;17.80;81.60
26964;DHT22;14521;48.148;-1.656;2024-03-02T01:14:11;17.80;81.60
26964;DHT22;14521;48.148;-1.656;2024-03-02T01:17:34;17.80;81.60
26964;DHT22;14521;48.148;-1.656;2024-03-02T01:20:56;17.80;81.80
26964;DHT22;14521;48.148;-1.656;2024-03-02T01:24:18;17.80;81.90
26964;DHT22;14521;48.148;-1.656;2024-03-02T01:27:41;17.80;82.10
26964;DHT22;14521;48.148;-1.656;2024-03-02T01:31:03;17.80;82.00
26964;DHT22;14521;48.148;-1.656;2024-03-02T01:34:26;17.80;81.90
26964;DHT22;14521;48.148;-1.656;2024-03-02T01:37:48;17.70;82.00
26964;DHT22;14521;48.148;-1.656;2024-03-02T01:41:10;17.80;82.10
26964;DHT22;14521;48.148;-1.656;2024-03-02T01:44:33;17.70;82.00
26964;DHT22;14521;48.148;-1.656;2024-03-02T01:47:56;17.70;82.10
26964;DHT22;14521;48.148;-1.656;2024-03-02T01:51:18;17.70;82.10
26964;DHT22;14521;48.148;-1.656;2024-03-02T01:54:41;17.70;82.10
26964;DHT22;14521;48.148;-1.656;2024-03-02T01:58:03;17.60;82.20
26964;DHT22;14521;48.148;-1.656;2024-03-02T02:01:26;17.60;82.20
26964;DHT22;14521;48.148;-1.656;2024-03-02T02:04:48;17.60;82.20
26964;DHT22;14521;48.148;-1.656;2024-03-02T02:08:11;17.60;82.00
26964;DHT22;14521;48.148;-1.656;2024-03-02T02:11:33;17.60;82.50
26964;DHT22;14521;48.148;-1.656;2024-03-02T02:14:56;17.60;82.30
26964;DHT22;14521;48.148;-1.656;2024-03-02T02:18:18;17.50;82.50
26964;DHT22;14521;48.148;-1.656;2024-03-02T02:21:44;17.50;81.90
26964;DHT22;14521;48.148;-1.656;2024-03-02T02:25:06;17.50;82.20
26964;DHT22;14521;48.148;-1.656;2024-03-02T02:28:29;17.50;82.80
26964;DHT22;14521;48.148;-1.656;2024-03-02T02:31:51;17.50;82.80
26964;DHT22;14521;48.148;-1.656;2024-03-02T02:35:13;17.50;82.60
26964;DHT22;14521;48.148;-1.656;2024-03-02T02:38:40;17.50;82.50
26964;DHT22;14521;48.148;-1.656;2024-03-02T02:42:02;17.40;82.30
26964;DHT22;14521;48.148;-1.656;2024-03-02T02:45:25;17.40;82.70
26964;DHT22;14521;48.148;-1.656;2024-03-02T02:48:47;17.50;82.60
26964;DHT22;14521;48.148;-1.656;2024-03-02T02:52:09;17.40;82.50
26964;DHT22;14521;48.148;-1.656;2024-03-02T02:55:32;17.50;82.70
26964;DHT22;14521;48.148;-1.656;2024-03-02T02:58:54;17.40;82.30
26964;DHT22;14521;48.148;-1.656;2024-03-02T03:02:16;17.40;82.50
26964;DHT22;14521;48.148;-1.656;2024-03-02T03:05:38;17.40;82.50
26964;DHT22;14521;48.148;-1.656;2024-03-02T03:09:01;17.40;82.50
26964;DHT22;14521;48.148;-1.656;2024-03-02T03:12:24;17.40;82.50
26964;DHT22;14521;48.148;-1.656;2024-03-02T03:15:46;17.40;82.40
26964;DHT22;14521;48.148;-1.656;2024-03-02T03:19:08;17.40;82.80
26964;DHT22;14521;48.148;-1.656;2024-03-02T03:22:31;17.40;82.50
26964;DHT22;14521;48.148;-1.656;2024-03-02T03:25:54;17.40;82.50
26964;DHT22;14521;48.148;-1.656;2024-03-02T03:29:16;17.40;82.40
26964;DHT22;14521;48.148;-1.656;2024-03-02T03:32:38;17.40;82.40
26964;DHT22;14521;48.148;-1.656;2024-03-02T03:36:01;17.40;82.40
26964;DHT22;14521;48.148;-1.656;2024-03-02T03:39:25;17.40;82.30
26964;DHT22;14521;48.148;-1.656;2024-03-02T03:42:47;17.40;82.40
26964;DHT22;14521;48.148;-1.656;2024-03-02T03:46:11;17.30;82.40
26964;DHT22;14521;48.148;-1.656;2024-03-02T03:49:33;17.30;82.50
26964;DHT22;14521;48.148;-1.656;2024-03-02T03:52:55;17.30;82.40
26964;DHT22;14521;48.148;-1.656;2024-03-02T03:56:18;17.40;82.60
26964;DHT22;14521;48.148;-1.656;2024-03-02T03:59:40;17.40;82.70
26964;DHT22;14521;48.148;-1.656;2024-03-02T04:03:02;17.30;82.80
26964;DHT22;14521;48.148;-1.656;2024-03-02T04:06:25;17.30;83.10
26964;DHT22;14521;48.148;-1.656;2024-03-02T04:09:47;17.30;82.90
26964;DHT22;14521;48.148;-1.656;2024-03-02T04:13:10;17.30;82.90
26964;DHT22;14521;48.148;-1.656;2024-03-02T04:16:32;17.30;82.90
26964;DHT22;14521;48.148;-1.656;2024-03-02T04:19:54;17.30;82.90
26964;DHT22;14521;48.148;-1.656;2024-03-02T04:23:18;17.30;82.90
26964;DHT22;14521;48.148;-1.656;2024-03-02T04:26:40;17.30;83.30
26964;DHT22;14521;48.148;-1.656;2024-03-02T04:30:04;17.30;83.50
26964;DHT22;14521;48.148;-1.656;2024-03-02T04:33:27;17.40;83.30
26964;DHT22;14521;48.148;-1.656;2024-03-02T04:36:49;17.30;83.30
26964;DHT22;14521;48.148;-1.656;2024-03-02T04:40:12;17.30;83.50
26964;DHT22;14521;48.148;-1.656;2024-03-02T04:43:35;17.40;83.10
26964;DHT22;14521;48.148;-1.656;2024-03-02T04:46:57;17.30;83.00
26964;DHT22;14521;48.148;-1.656;2024-03-02T04:50:19;17.30;83.00
26964;DHT22;14521;48.148;-1.656;2024-03-02T04:53:42;17.30;82.70
26964;DHT22;14521;48.148;-1.656;2024-03-02T04:57:04;17.30;82.80
26964;DHT22;14521;48.148;-1.656;2024-03-02T05:00:26;17.30;82.80
26964;DHT22;14521;48.148;-1.656;2024-03-02T05:03:49;17.30;82.90
26964;DHT22;14521;48.148;-1.656;2024-03-02T05:07:11;17.30;82.90
26964;DHT22;14521;48.148;-1.656;2024-03-02T05:10:34;17.30;83.20
26964;DHT22;14521;48.148;-1.656;2024-03-02T05:13:56;17.40;83.40
26964;DHT22;14521;48.148;-1.656;2024-03-02T05:17:18;17.40;83.30
26964;DHT22;14521;48.148;-1.656;2024-03-02T05:20:40;17.60;83.40
26964;DHT22;14521;48.148;-1.656;2024-03-02T05:24:03;17.60;83.20
26964;DHT22;14521;48.148;-1.656;2024-03-02T05:27:25;17.70;83.20
26964;DHT22;14521;48.148;-1.656;2024-03-02T05:30:47;17.70;82.90
26964;DHT22;14521;48.148;-1.656;2024-03-02T05:34:10;17.80;82.90
26964;DHT22;14521;48.148;-1.656;2024-03-02T05:37:32;17.90;82.90
26964;DHT22;14521;48.148;-1.656;2024-03-02T05:40:54;17.90;82.90
26964;DHT22;14521;48.148;-1.656;2024-03-02T05:44:17;18.00;82.80
26964;DHT22;14521;48.148;-1.656;2024-03-02T05:47:40;18.00;82.70
26964;DHT22;14521;48.148;-1.656;2024-03-02T05:51:03;18.00;82.70
26964;DHT22;14521;48.148;-1.656;2024-03-02T05:54:25;18.10;82.70
26964;DHT22;14521;48.148;-1.656;2024-03-02T05:57:48;18.10;82.80
26964;DHT22;14521;48.148;-1.656;2024-03-02T06:01:28;18.10;82.70
26964;DHT22;14521;48.148;-1.656;2024-03-02T06:04:54;18.10;82.60
26964;DHT22;14521;48.148;-1.656;2024-03-02T06:08:16;18.20;82.60
26964;DHT22;14521;48.148;-1.656;2024-03-02T06:11:39;18.20;82.70
26964;DHT22;14521;48.148;-1.656;2024-03-02T06:15:02;18.20;82.80
26964;DHT22;14521;48.148;-1.656;2024-03-02T06:18:25;18.20;82.80
26964;DHT22;14521;48.148;-1.656;2024-03-02T06:21:48;18.20;82.70
26964;DHT22;14521;48.148;-1.656;2024-03-02T06:25:10;18.20;82.80
26964;DHT22;14521;48.148;-1.656;2024-03-02T06:28:32;18.20;82.80
26964;DHT22;14521;48.148;-1.656;2024-03-02T06:31:55;18.30;82.80
26964;DHT22;14521;48.148;-1.656;2024-03-02T06:35:17;18.30;82.70
26964;DHT22;14521;48.148;-1.656;2024-03-02T06:38:39;18.30;82.70
26964;DHT22;14521;48.148;-1.656;2024-03-02T06:42:04;18.30;82.70
26964;DHT22;14521;48.148;-1.656;2024-03-02T06:45:27;18.30;82.80
26964;DHT22;14521;48.148;-1.656;2024-03-02T06:48:49;18.30;82.80
26964;DHT22;14521;48.148;-1.656;2024-03-02T06:52:11;18.30;82.80
26964;DHT22;14521;48.148;-1.656;2024-03-02T06:55:34;18.30;82.80
26964;DHT22;14521;48.148;-1.656;2024-03-02T06:58:56;18.30;82.80
26964;DHT22;14521;48.148;-1.656;2024-03-02T07:02:18;18.30;82.80
26964;DHT22;14521;48.148;-1.656;2024-03-02T07:05:41;18.30;82.80
26964;DHT22;14521;48.148;-1.656;2024-03-02T07:09:03;18.30;82.80
26964;DHT22;14521;48.148;-1.656;2024-03-02T07:12:25;18.40;82.60
26964;DHT22;14521;48.148;-1.656;2024-03-02T07:15:48;18.50;82.20
26964;DHT22;14521;48.148;-1.656;2024-03-02T07:19:26;18.10;78.80
26964;DHT22;14521;48.148;-1.656;2024-03-02T07:22:48;18.10;82.10
26964;DHT22;14521;48.148;-1.656;2024-03-02T07:26:10;18.30;82.60
26964;DHT22;14521;48.148;-1.656;2024-03-02T07:29:35;18.40;82.10
26964;DHT22;14521;48.148;-1.656;2024-03-02T07:32:58;18.40;82.20
26964;DHT22;14521;48.148;-1.656;2024-03-02T07:36:20;18.50;83.40
26964;DHT22;14521;48.148;-1.656;2024-03-02T07:39:44;18.50;83.40
26964;DHT22;14521;48.148;-1.656;2024-03-02T07:43:06;18.50;84.10
26964;DHT22;14521;48.148;-1.656;2024-03-02T07:46:29;18.50;83.40
26964;DHT22;14521;48.148;-1.656;2024-03-02T07:49:51;18.50;84.20
26964;DHT22;14521;48.148;-1.656;2024-03-02T07:53:13;18.50;84.00
26964;DHT22;14521;48.148;-1.656;2024-03-02T07:56:37;18.60;83.70
26964;DHT22;14521;48.148;-1.656;2024-03-02T07:59:59;18.60;83.90
26964;DHT22;14521;48.148;-1.656;2024-03-02T08:03:22;18.60;83.70
26964;DHT22;14521;48.148;-1.656;2024-03-02T08:06:45;18.60;84.20
26964;DHT22;14521;48.148;-1.656;2024-03-02T08:10:07;18.50;84.70
26964;DHT22;14521;48.148;-1.656;2024-03-02T08:13:30;18.50;83.90
26964;DHT22;14521;48.148;-1.656;2024-03-02T08:16:52;18.50;84.80
26964;DHT22;14521;48.148;-1.656;2024-03-02T08:20:15;18.50;85.20
26964;DHT22;14521;48.148;-1.656;2024-03-02T08:23:37;18.50;85.30
26964;DHT22;14521;48.148;-1.656;2024-03-02T08:27:02;18.50;85.00
26964;DHT22;14521;48.148;-1.656;2024-03-02T08:30:25;18.40;84.30
26964;DHT22;14521;48.148;-1.656;2024-03-02T08:33:47;18.40;85.20
26964;DHT22;14521;48.148;-1.656;2024-03-02T08:37:10;18.50;84.70
26964;DHT22;14521;48.148;-1.656;2024-03-02T08:40:32;18.50;85.70
26964;DHT22;14521;48.148;-1.656;2024-03-02T08:43:54;18.40;85.60
26964;DHT22;14521;48.148;-1.656;2024-03-02T08:47:17;18.40;86.20
26964;DHT22;14521;48.148;-1.656;2024-03-02T08:50:39;18.40;85.20
26964;DHT22;14521;48.148;-1.656;2024-03-02T08:54:02;18.40;85.10
26964;DHT22;14521;48.148;-1.656;2024-03-02T08:57:26;18.30;85.20
26964;DHT22;14521;48.148;-1.656;2024-03-02T09:00:48;18.30;85.10
26964;DHT22;14521;48.148;-1.656;2024-03-02T09:04:10;18.50;85.30
26964;DHT22;14521;48.148;-1.656;2024-03-02T09:07:33;18.50;85.00
26964;DHT22;14521;48.148;-1.656;2024-03-02T09:10:56;18.80;84.30
26964;DHT22;14521;48.148;-1.656;2024-03-02T09:14:18;18.80;84.60
26964;DHT22;14521;48.148;-1.656;2024-03-02T09:17:41;18.70;84.80
26964;DHT22;14521;48.148;-1.656;2024-03-02T09:21:04;18.60;85.10
26964;DHT22;14521;48.148;-1.656;2024-03-02T09:24:26;18.50;85.20
26964;DHT22;14521;48.148;-1.656;2024-03-02T09:27:48;18.40;85.00
26964;DHT22;14521;48.148;-1.656;2024-03-02T09:31:11;18.60;84.30
26964;DHT22;14521;48.148;-1.656;2024-03-02T09:34:34;18.80;84.10
26964;DHT22;14521;48.148;-1.656;2024-03-02T09:37:56;19.00;83.50
26964;DHT22;14521;48.148;-1.656;2024-03-02T09:41:19;19.00;83.30
26964;DHT22;14521;48.148;-1.656;2024-03-02T09:44:42;19.00;83.30
26964;DHT22;14521;48.148;-1.656;2024-03-02T09:48:05;19.00;83.10
26964;DHT22;14521;48.148;-1.656;2024-03-02T09:51:28;18.90;83.50
26964;DHT22;14521;48.148;-1.656;2024-03-02T09:54:50;18.90;83.60
26964;DHT22;14521;48.148;-1.656;2024-03-02T09:58:13;18.80;83.70
26964;DHT22;14521;48.148;-1.656;2024-03-02T10:01:35;18.70;83.90
26964;DHT22;14521;48.148;-1.656;2024-03-02T10:04:58;18.70;84.10
26964;DHT22;14521;48.148;-1.656;2024-03-02T10:08:20;18.70;83.80
26964;DHT22;14521;48.148;-1.656;2024-03-02T10:11:42;18.70;83.60
26964;DHT22;14521;48.148;-1.656;2024-03-02T10:15:05;18.70;83.60
26964;DHT22;14521;48.148;-1.656;2024-03-02T10:18:27;18.70;83.50
26964;DHT22;14521;48.148;-1.656;2024-03-02T10:21:53;18.70;83.50
26964;DHT22;14521;48.148;-1.656;2024-03-02T10:25:32;18.70;83.40
26964;DHT22;14521;48.148;-1.656;2024-03-02T10:28:57;18.60;83.60
26964;DHT22;14521;48.148;-1.656;2024-03-02T10:32:22;18.50;83.70
26964;DHT22;14521;48.148;-1.656;2024-03-02T10:35:45;18.50;83.70
26964;DHT22;14521;48.148;-1.656;2024-03-02T10:39:08;18.50;83.70
26964;DHT22;14521;48.148;-1.656;2024-03-02T10:42:30;18.50;83.70
26964;DHT22;14521;48.148;-1.656;2024-03-02T10:45:54;18.50;83.70
26964;DHT22;14521;48.148;-1.656;2024-03-02T10:49:17;18.50;83.40
26964;DHT22;14521;48.148;-1.656;2024-03-02T10:52:40;18.40;83.60
26964;DHT22;14521;48.148;-1.656;2024-03-02T10:56:07;18.50;83.40
26964;DHT22;14521;48.148;-1.656;2024-03-02T10:59:36;18.50;83.60
26964;DHT22;14521;48.148;-1.656;2024-03-02T11:06:28;18.40;83.40
26964;DHT22;14521;48.148;-1.656;2024-03-02T11:09:59;18.40;83.20
26964;DHT22;14521;48.148;-1.656;2024-03-02T11:13:32;18.30;83.40
26964;DHT22;14521;48.148;-1.656;2024-03-02T11:16:56;18.20;83.80
26964;DHT22;14521;48.148;-1.656;2024-03-02T11:20:19;18.20;83.50
26964;DHT22;14521;48.148;-1.656;2024-03-02T11:23:42;18.20;83.50
26964;DHT22;14521;48.148;-1.656;2024-03-02T11:27:06;18.30;84.60
26964;DHT22;14521;48.148;-1.656;2024-03-02T11:34:17;18.40;85.70
26964;DHT22;14521;48.148;-1.656;2024-03-02T11:37:40;18.40;87.00
26964;DHT22;14521;48.148;-1.656;2024-03-02T11:41:06;18.50;88.30
26964;DHT22;14521;48.148;-1.656;2024-03-02T11:44:33;18.40;87.90
26964;DHT22;14521;48.148;-1.656;2024-03-02T11:47:57;18.40;87.90
26964;DHT22;14521;48.148;-1.656;2024-03-02T11:51:19;18.40;87.90
26964;DHT22;14521;48.148;-1.656;2024-03-02T11:54:43;18.40;88.30
26964;DHT22;14521;48.148;-1.656;2024-03-02T11:58:09;18.30;86.90
26964;DHT22;14521;48.148;-1.656;2024-03-02T12:01:34;18.30;88.40
26964;DHT22;14521;48.148;-1.656;2024-03-02T12:04:57;18.40;87.50
26964;DHT22;14521;48.148;-1.656;2024-03-02T12:08:19;18.40;87.00
26964;DHT22;14521;48.148;-1.656;2024-03-02T12:11:42;18.40;86.50
26964;DHT22;14521;48.148;-1.656;2024-03-02T12:15:05;18.40;86.30
26964;DHT22;14521;48.148;-1.656;2024-03-02T12:18:27;18.40;87.30
26964;DHT22;14521;48.148;-1.656;2024-03-02T12:21:50;18.40;87.40
26964;DHT22;14521;48.148;-1.656;2024-03-02T12:25:12;18.40;87.80
26964;DHT22;14521;48.148;-1.656;2024-03-02T12:28:35;18.50;89.80
26964;DHT22;14521;48.148;-1.656;2024-03-02T12:31:57;18.50;89.80
26964;DHT22;14521;48.148;-1.656;2024-03-02T12:35:19;18.50;89.80
26964;DHT22;14521;48.148;-1.656;2024-03-02T12:38:46;18.40;89.70
26964;DHT22;14521;48.148;-1.656;2024-03-02T12:42:08;18.50;89.60
26964;DHT22;14521;48.148;-1.656;2024-03-02T12:45:31;18.40;89.40
26964;DHT22;14521;48.148;-1.656;2024-03-02T12:48:53;18.40;89.40
26964;DHT22;14521;48.148;-1.656;2024-03-02T12:52:16;18.40;89.60
26964;DHT22;14521;48.148;-1.656;2024-03-02T12:55:41;18.40;89.10
26964;DHT22;14521;48.148;-1.656;2024-03-02T12:59:04;18.40;89.10
26964;DHT22;14521;48.148;-1.656;2024-03-02T13:02:31;18.40;88.90
26964;DHT22;14521;48.148;-1.656;2024-03-02T13:05:53;18.40;88.90
26964;DHT22;14521;48.148;-1.656;2024-03-02T13:09:16;18.40;88.90
26964;DHT22;14521;48.148;-1.656;2024-03-02T13:12:38;18.50;86.40
26964;DHT22;14521;48.148;-1.656;2024-03-02T13:16:00;18.50;87.50
26964;DHT22;14521;48.148;-1.656;2024-03-02T13:19:23;18.50;88.80
26964;DHT22;14521;48.148;-1.656;2024-03-02T13:22:45;18.40;88.10
26964;DHT22;14521;48.148;-1.656;2024-03-02T13:26:07;18.40;88.00
26964;DHT22;14521;48.148;-1.656;2024-03-02T13:29:32;18.40;88.00
26964;DHT22;14521;48.148;-1.656;2024-03-02T13:32:54;18.30;87.30
26964;DHT22;14521;48.148;-1.656;2024-03-02T13:36:17;18.30;87.30
26964;DHT22;14521;48.148;-1.656;2024-03-02T13:39:40;18.30;86.90
26964;DHT22;14521;48.148;-1.656;2024-03-02T13:43:04;18.30;87.10
26964;DHT22;14521;48.148;-1.656;2024-03-02T13:46:27;18.30;87.00
26964;DHT22;14521;48.148;-1.656;2024-03-02T13:49:50;18.30;86.80
26964;DHT22;14521;48.148;-1.656;2024-03-02T13:53:12;18.30;86.80
26964;DHT22;14521;48.148;-1.656;2024-03-02T13:56:34;18.30;86.60
26964;DHT22;14521;48.148;-1.656;2024-03-02T13:59:56;18.30;86.70
26964;DHT22;14521;48.148;-1.656;2024-03-02T14:03:19;18.30;86.40
26964;DHT22;14521;48.148;-1.656;2024-03-02T14:06:43;18.20;85.80
26964;DHT22;14521;48.148;-1.656;2024-03-02T14:10:06;18.30;86.30
26964;DHT22;14521;48.148;-1.656;2024-03-02T14:13:28;18.30;86.20
26964;DHT22;14521;48.148;-1.656;2024-03-02T14:16:52;18.30;86.00
26964;DHT22;14521;48.148;-1.656;2024-03-02T14:20:14;18.30;85.80
26964;DHT22;14521;48.148;-1.656;2024-03-02T14:23:42;18.20;84.60
26964;DHT22;14521;48.148;-1.656;2024-03-02T14:27:04;18.20;85.10
26964;DHT22;14521;48.148;-1.656;2024-03-02T14:30:45;18.20;85.40
26964;DHT22;14521;48.148;-1.656;2024-03-02T14:34:08;18.20;85.90
26964;DHT22;14521;48.148;-1.656;2024-03-02T14:37:31;18.20;85.70
26964;DHT22;14521;48.148;-1.656;2024-03-02T14:40:53;18.20;85.80
26964;DHT22;14521;48.148;-1.656;2024-03-02T14:44:15;18.20;85.50
26964;DHT22;14521;48.148;-1.656;2024-03-02T14:47:39;18.20;85.60
26964;DHT22;14521;48.148;-1.656;2024-03-02T14:51:02;18.20;85.60
26964;DHT22;14521;48.148;-1.656;2024-03-02T14:54:25;18.20;85.80
26964;DHT22;14521;48.148;-1.656;2024-03-02T14:57:47;18.20;85.40
26964;DHT22;14521;48.148;-1.656;2024-03-02T15:01:09;18.20;85.30
26964;DHT22;14521;48.148;-1.656;2024-03-02T15:04:32;18.10;84.80
26964;DHT22;14521;48.148;-1.656;2024-03-02T15:07:54;18.00;79.10
26964;DHT22;14521;48.148;-1.656;2024-03-02T15:11:16;17.90;81.90
26964;DHT22;14521;48.148;-1.656;2024-03-02T15:14:39;17.80;84.20
26964;DHT22;14521;48.148;-1.656;2024-03-02T15:18:07;17.80;81.60
26964;DHT22;14521;48.148;-1.656;2024-03-02T15:21:31;17.80;81.60
26964;DHT22;14521;48.148;-1.656;2024-03-02T15:24:53;18.00;83.40
26964;DHT22;14521;48.148;-1.656;2024-03-02T15:28:16;18.20;82.90
26964;DHT22;14521;48.148;-1.656;2024-03-02T15:31:38;18.20;83.00
26964;DHT22;14521;48.148;-1.656;2024-03-02T15:35:01;18.20;83.00
26964;DHT22;14521;48.148;-1.656;2024-03-02T15:38:23;18.20;82.90
26964;DHT22;14521;48.148;-1.656;2024-03-02T15:41:55;18.20;83.10
26964;DHT22;14521;48.148;-1.656;2024-03-02T15:45:17;18.20;83.50
26964;DHT22;14521;48.148;-1.656;2024-03-02T15:48:40;18.20;83.30
26964;DHT22;14521;48.148;-1.656;2024-03-02T15:52:02;18.20;83.50
26964;DHT22;14521;48.148;-1.656;2024-03-02T15:55:25;18.10;83.60
26964;DHT22;14521;48.148;-1.656;2024-03-02T15:58:47;18.10;83.60
26964;DHT22;14521;48.148;-1.656;2024-03-02T16:02:10;18.10;83.50
26964;DHT22;14521;48.148;-1.656;2024-03-02T16:05:33;18.10;83.80
26964;DHT22;14521;48.148;-1.656;2024-03-02T16:08:55;18.10;83.70
26964;DHT22;14521;48.148;-1.656;2024-03-02T16:12:19;18.10;83.70
26964;DHT22;14521;48.148;-1.656;2024-03-02T16:15:41;18.10;83.60
26964;DHT22;14521;48.148;-1.656;2024-03-02T16:19:03;18.10;83.60
26964;DHT22;14521;48.148;-1.656;2024-03-02T16:22:37;18.10;84.50
26964;DHT22;14521;48.148;-1.656;2024-03-02T16:25:59;18.00;83.50
26964;DHT22;14521;48.148;-1.656;2024-03-02T16:29:22;18.10;83.30
26964;DHT22;14521;48.148;-1.656;2024-03-02T16:32:44;18.00;83.50
26964;DHT22;14521;48.148;-1.656;2024-03-02T16:36:06;18.00;83.40
26964;DHT22;14521;48.148;-1.656;2024-03-02T16:39:29;18.00;83.50
26964;DHT22;14521;48.148;-1.656;2024-03-02T16:42:52;18.00;82.90
26964;DHT22;14521;48.148;-1.656;2024-03-02T16:46:14;18.00;83.20
26964;DHT22;14521;48.148;-1.656;2024-03-02T16:49:36;18.00;83.30
26964;DHT22;14521;48.148;-1.656;2024-03-02T16:52:59;18.00;83.20
26964;DHT22;14521;48.148;-1.656;2024-03-02T16:56:21;18.00;83.20
26964;DHT22;14521;48.148;-1.656;2024-03-02T16:59:44;18.00;83.20
26964;DHT22;14521;48.148;-1.656;2024-03-02T17:03:06;18.00;83.20
26964;DHT22;14521;48.148;-1.656;2024-03-02T17:06:29;18.00;83.10
26964;DHT22;14521;48.148;-1.656;2024-03-02T17:09:52;18.00;83.40
26964;DHT22;14521;48.148;-1.656;2024-03-02T17:13:18;18.10;83.70
26964;DHT22;14521;48.148;-1.656;2024-03-02T17:16:40;18.20;83.80
26964;DHT22;14521;48.148;-1.656;2024-03-02T17:20:06;18.20;83.70
26964;DHT22;14521;48.148;-1.656;2024-03-02T17:23:30;18.30;83.80
26964;DHT22;14521;48.148;-1.656;2024-03-02T17:26:55;18.30;84.10
26964;DHT22;14521;48.148;-1.656;2024-03-02T17:30:19;18.40;84.20
26964;DHT22;14521;48.148;-1.656;2024-03-02T17:33:43;18.40;84.10
26964;DHT22;14521;48.148;-1.656;2024-03-02T17:37:05;18.40;84.00
26964;DHT22;14521;48.148;-1.656;2024-03-02T17:40:27;18.40;84.10
26964;DHT22;14521;48.148;-1.656;2024-03-02T17:43:50;18.50;84.10
26964;DHT22;14521;48.148;-1.656;2024-03-02T17:47:12;18.50;84.10
26964;DHT22;14521;48.148;-1.656;2024-03-02T17:50:35;18.50;83.90
26964;DHT22;14521;48.148;-1.656;2024-03-02T17:53:57;18.50;83.00
26964;DHT22;14521;48.148;-1.656;2024-03-02T17:57:20;18.70;82.40
26964;DHT22;14521;48.148;-1.656;2024-03-02T18:00:42;18.70;82.10
26964;DHT22;14521;48.148;-1.656;2024-03-02T18:04:04;18.70;82.30
26964;DHT22;14521;48.148;-1.656;2024-03-02T18:07:31;18.80;82.10
26964;DHT22;14521;48.148;-1.656;2024-03-02T18:10:54;18.80;82.30
26964;DHT22;14521;48.148;-1.656;2024-03-02T18:14:17;18.80;82.00
26964;DHT22;14521;48.148;-1.656;2024-03-02T18:17:39;18.80;82.00
26964;DHT22;14521;48.148;-1.656;2024-03-02T18:21:03;18.90;82.00
26964;DHT22;14521;48.148;-1.656;2024-03-02T18:24:25;18.90;82.20
26964;DHT22;14521;48.148;-1.656;2024-03-02T18:27:50;19.00;82.50
26964;DHT22;14521;48.148;-1.656;2024-03-02T18:31:12;19.00;82.60
26964;DHT22;14521;48.148;-1.656;2024-03-02T18:34:35;19.00;82.80
26964;DHT22;14521;48.148;-1.656;2024-03-02T18:38:01;19.00;82.90
26964;DHT22;14521;48.148;-1.656;2024-03-02T18:41:23;19.00;82.60
26964;DHT22;14521;48.148;-1.656;2024-03-02T18:44:46;19.00;82.70
26964;DHT22;14521;48.148;-1.656;2024-03-02T18:48:10;19.00;82.90
26964;DHT22;14521;48.148;-1.656;2024-03-02T18:51:33;19.10;83.90
26964;DHT22;14521;48.148;-1.656;2024-03-02T18:54:55;19.10;82.80
26964;DHT22;14521;48.148;-1.656;2024-03-02T18:58:17;19.10;83.20
26964;DHT22;14521;48.148;-1.656;2024-03-02T19:01:40;19.10;82.60
26964;DHT22;14521;48.148;-1.656;2024-03-02T19:05:02;19.00;83.20
26964;DHT22;14521;48.148;-1.656;2024-03-02T19:08:27;19.00;83.80
26964;DHT22;14521;48.148;-1.656;2024-03-02T19:11:50;19.00;84.30
26964;DHT22;14521;48.148;-1.656;2024-03-02T19:15:12;19.00;84.70
26964;DHT22;14521;48.148;-1.656;2024-03-02T19:18:36;19.00;85.90
26964;DHT22;14521;48.148;-1.656;2024-03-02T19:21:58;19.00;85.40
26964;DHT22;14521;48.148;-1.656;2024-03-02T19:25:31;18.90;85.90
26964;DHT22;14521;48.148;-1.656;2024-03-02T19:28:54;18.90;86.30
26964;DHT22;14521;48.148;-1.656;2024-03-02T19:32:16;18.90;86.10
26964;DHT22;14521;48.148;-1.656;2024-03-02T19:35:42;18.90;86.40
26964;DHT22;14521;48.148;-1.656;2024-03-02T19:39:04;18.90;86.50
26964;DHT22;14521;48.148;-1.656;2024-03-02T19:42:27;18.90;86.00
26964;DHT22;14521;48.148;-1.656;2024-03-02T19:45:50;18.90;87.10
26964;DHT22;14521;48.148;-1.656;2024-03-02T19:49:12;18.80;86.40
26964;DHT22;14521;48.148;-1.656;2024-03-02T19:52:34;18.80;87.10
26964;DHT22;14521;48.148;-1.656;2024-03-02T19:55:57;18.80;87.10
26964;DHT22;14521;48.148;-1.656;2024-03-02T19:59:19;18.80;87.00
26964;DHT22;14521;48.148;-1.656;2024-03-02T20:02:42;18.80;86.90
26964;DHT22;14521;48.148;-1.656;2024-03-02T20:06:04;18.80;86.80
26964;DHT22;14521;48.148;-1.656;2024-03-02T20:09:27;18.70;86.60
26964;DHT22;14521;48.148;-1.656;2024-03-02T20:12:49;18.80;86.90
26964;DHT22;14521;48.148;-1.656;2024-03-02T20:16:11;18.70;86.80
26964;DHT22;14521;48.148;-1.656;2024-03-02T20:19:40;18.70;86.90
26964;DHT22;14521;48.148;-1.656;2024-03-02T20:23:03;18.70;86.90
26964;DHT22;14521;48.148;-1.656;2024-03-02T20:26:26;18.70;86.00
26964;DHT22;14521;48.148;-1.656;2024-03-02T20:29:48;18.70;85.70
26964;DHT22;14521;48.148;-1.656;2024-03-02T20:33:11;18.70;85.70
26964;DHT22;14521;48.148;-1.656;2024-03-02T20:36:33;18.70;86.60
26964;DHT22;14521;48.148;-1.656;2024-03-02T20:39:55;18.70;86.70
26964;DHT22;14521;48.148;-1.656;2024-03-02T20:43:21;18.70;86.60
26964;DHT22;14521;48.148;-1.656;2024-03-02T20:46:43;18.70;86.80
26964;DHT22;14521;48.148;-1.656;2024-03-02T20:50:06;18.70;86.60
26964;DHT22;14521;48.148;-1.656;2024-03-02T20:53:29;18.70;86.50
26964;DHT22;14521;48.148;-1.656;2024-03-02T20:56:51;18.70;86.70
26964;DHT22;14521;48.148;-1.656;2024-03-02T21:00:14;18.60;86.70
26964;DHT22;14521;48.148;-1.656;2024-03-02T21:03:37;18.70;86.40
26964;DHT22;14521;48.148;-1.656;2024-03-02T21:07:00;18.60;86.50
26964;DHT22;14521;48.148;-1.656;2024-03-02T21:10:23;18.60;86.50